DLH9U EGLL-EDDF
Flight info
| Callsign | DLH9U |
|---|---|
| Flight time | 1h 6m |
| Altitude | 35000 |
| Route | BPK Q295 MATCH DCT REDFA DCT TACHA DCT NOLRU DCT DIXAT DIXAT1A |
| Aircraft | A320/M-SDE2E3FGIJ1LORWXYZ/HB1 |
Departure
| Time | 2026-05-06 13:44 |
|---|---|
| Airport | London Heathrow Airport (EGLL) |
Arrival
| Time | 2026-05-06 14:50 |
|---|---|
| Airport | Frankfurt Main Airport (EDDF) |
| Time | Latitude | Longitude | Altitude | Speed | Heading |
|---|---|---|---|---|---|
| 2026-05-06 13:12 | 51.46827 | -0.45112 | 86 ft | 0 kts | 359° |
| 2026-05-06 13:34 | 51.46806 | -0.45112 | 87 ft | 4 kts | 359° |
| 2026-05-06 13:35 | 51.46784 | -0.45111 | 86 ft | 4 kts | 353° |
| 2026-05-06 13:35 | 51.46761 | -0.45098 | 86 ft | 4 kts | 307° |
| 2026-05-06 13:35 | 51.46751 | -0.45060 | 86 ft | 4 kts | 274° |
| 2026-05-06 13:35 | 51.46751 | -0.45020 | 86 ft | 4 kts | 269° |
| 2026-05-06 13:36 | 51.46751 | -0.45004 | 86 ft | 0 kts | 269° |
| 2026-05-06 13:40 | 51.46751 | -0.45015 | 86 ft | 6 kts | 269° |
| 2026-05-06 13:40 | 51.46748 | -0.45213 | 86 ft | 25 kts | 268° |
| 2026-05-06 13:40 | 51.46672 | -0.45396 | 90 ft | 16 kts | 226° |
| 2026-05-06 13:41 | 51.46665 | -0.45526 | 86 ft | 18 kts | 268° |
| 2026-05-06 13:41 | 51.46663 | -0.45809 | 86 ft | 28 kts | 270° |
| 2026-05-06 13:41 | 51.46663 | -0.46120 | 86 ft | 28 kts | 270° |
| 2026-05-06 13:41 | 51.46662 | -0.46452 | 86 ft | 34 kts | 269° |
| 2026-05-06 13:42 | 51.46661 | -0.46706 | 86 ft | 35 kts | 270° |
| 2026-05-06 13:42 | 51.46661 | -0.47232 | 86 ft | 36 kts | 270° |
| 2026-05-06 13:42 | 51.46664 | -0.47640 | 86 ft | 37 kts | 270° |
| 2026-05-06 13:42 | 51.46653 | -0.48030 | 86 ft | 28 kts | 269° |
| 2026-05-06 13:43 | 51.46589 | -0.48219 | 87 ft | 16 kts | 167° |
| 2026-05-06 13:43 | 51.46518 | -0.48202 | 89 ft | 15 kts | 173° |
| 2026-05-06 13:43 | 51.46480 | -0.48079 | 87 ft | 14 kts | 89° |
| 2026-05-06 13:43 | 51.46482 | -0.47864 | 87 ft | 38 kts | 89° |
| 2026-05-06 13:44 | 51.46483 | -0.47046 | 87 ft | 105 kts | 90° |
| 2026-05-06 13:44 | 51.46497 | -0.45585 | 88 ft | 154 kts | 89° |
| 2026-05-06 13:44 | 51.46509 | -0.43725 | 435 ft | 173 kts | 89° |
| 2026-05-06 13:44 | 51.46545 | -0.41804 | 1192 ft | 170 kts | 70° |
| 2026-05-06 13:45 | 51.47108 | -0.40114 | 1686 ft | 179 kts | 46° |
| 2026-05-06 13:45 | 51.48913 | -0.36759 | 2334 ft | 221 kts | 46° |
| 2026-05-06 13:45 | 51.49919 | -0.34852 | 3083 ft | 228 kts | 47° |
| 2026-05-06 13:46 | 51.50981 | -0.32821 | 3669 ft | 246 kts | 48° |
| 2026-05-06 13:46 | 51.52063 | -0.30621 | 4502 ft | 255 kts | 57° |
| 2026-05-06 13:46 | 51.52697 | -0.27922 | 5400 ft | 264 kts | 78° |
| 2026-05-06 13:46 | 51.52830 | -0.24938 | 6279 ft | 271 kts | 84° |
| 2026-05-06 13:47 | 51.52910 | -0.21882 | 7111 ft | 276 kts | 84° |
| 2026-05-06 13:47 | 51.52983 | -0.18768 | 7944 ft | 281 kts | 85° |
| 2026-05-06 13:47 | 51.53053 | -0.15646 | 8723 ft | 286 kts | 85° |
| 2026-05-06 13:47 | 51.53124 | -0.12425 | 9547 ft | 291 kts | 86° |
| 2026-05-06 13:48 | 51.53196 | -0.09152 | 10256 ft | 299 kts | 86° |
| 2026-05-06 13:48 | 51.53274 | -0.05665 | 10562 ft | 323 kts | 86° |
| 2026-05-06 13:48 | 51.53354 | -0.01964 | 11023 ft | 336 kts | 86° |
| 2026-05-06 13:48 | 51.53433 | 0.01840 | 11712 ft | 342 kts | 86° |
| 2026-05-06 13:49 | 51.53509 | 0.05686 | 12421 ft | 347 kts | 86° |
| 2026-05-06 13:49 | 51.53587 | 0.09596 | 13155 ft | 351 kts | 87° |
| 2026-05-06 13:49 | 51.53666 | 0.13536 | 13865 ft | 355 kts | 87° |
| 2026-05-06 13:49 | 51.53743 | 0.17529 | 14455 ft | 360 kts | 87° |
| 2026-05-06 13:50 | 51.53820 | 0.21513 | 15103 ft | 363 kts | 87° |
| 2026-05-06 13:50 | 51.53899 | 0.25596 | 15737 ft | 367 kts | 87° |
| 2026-05-06 13:50 | 51.53978 | 0.29720 | 16348 ft | 371 kts | 88° |
| 2026-05-06 13:50 | 51.54057 | 0.33872 | 17014 ft | 373 kts | 88° |
| 2026-05-06 13:51 | 51.54136 | 0.38076 | 17616 ft | 378 kts | 88° |
| 2026-05-06 13:51 | 51.54211 | 0.42308 | 18222 ft | 381 kts | 88° |
| 2026-05-06 13:51 | 51.54283 | 0.46568 | 18779 ft | 384 kts | 88° |
| 2026-05-06 13:51 | 51.54355 | 0.50914 | 19295 ft | 388 kts | 88° |
| 2026-05-06 13:52 | 51.54426 | 0.55246 | 19825 ft | 391 kts | 88° |
| 2026-05-06 13:52 | 51.54499 | 0.59635 | 20387 ft | 393 kts | 88° |
| 2026-05-06 13:52 | 51.54570 | 0.64041 | 20891 ft | 397 kts | 89° |
| 2026-05-06 13:52 | 51.54638 | 0.68420 | 21424 ft | 399 kts | 89° |
| 2026-05-06 13:53 | 51.54706 | 0.72948 | 21934 ft | 401 kts | 89° |
| 2026-05-06 13:53 | 51.54769 | 0.77391 | 22417 ft | 405 kts | 89° |
| 2026-05-06 13:53 | 51.54832 | 0.81930 | 22942 ft | 407 kts | 89° |
| 2026-05-06 13:53 | 51.54895 | 0.86503 | 23409 ft | 411 kts | 89° |
| 2026-05-06 13:54 | 51.54957 | 0.91110 | 23819 ft | 414 kts | 89° |
| 2026-05-06 13:54 | 51.55018 | 0.95730 | 24238 ft | 415 kts | 89° |
| 2026-05-06 13:54 | 51.55079 | 1.00390 | 24630 ft | 418 kts | 90° |
| 2026-05-06 13:54 | 51.55138 | 1.05076 | 25031 ft | 420 kts | 90° |
| 2026-05-06 13:55 | 51.55197 | 1.09777 | 25429 ft | 422 kts | 90° |
| 2026-05-06 13:55 | 51.55256 | 1.14511 | 25816 ft | 424 kts | 90° |
| 2026-05-06 13:55 | 51.55312 | 1.19266 | 26207 ft | 426 kts | 90° |
| 2026-05-06 13:55 | 51.55363 | 1.24025 | 26595 ft | 428 kts | 90° |
| 2026-05-06 13:56 | 51.55412 | 1.28816 | 26972 ft | 430 kts | 90° |
| 2026-05-06 13:56 | 51.55461 | 1.33604 | 27347 ft | 432 kts | 90° |
| 2026-05-06 13:56 | 51.55506 | 1.38451 | 27726 ft | 434 kts | 90° |
| 2026-05-06 13:56 | 51.55549 | 1.43296 | 28097 ft | 436 kts | 90° |
| 2026-05-06 13:57 | 51.55593 | 1.48173 | 28459 ft | 438 kts | 90° |
| 2026-05-06 13:57 | 51.55633 | 1.53080 | 28820 ft | 440 kts | 90° |
| 2026-05-06 13:57 | 51.55673 | 1.58000 | 29173 ft | 442 kts | 90° |
| 2026-05-06 13:57 | 51.55712 | 1.62959 | 29528 ft | 444 kts | 90° |
| 2026-05-06 13:58 | 51.55749 | 1.67917 | 29862 ft | 446 kts | 90° |
| 2026-05-06 13:58 | 51.55782 | 1.72915 | 30164 ft | 448 kts | 90° |
| 2026-05-06 13:58 | 51.55812 | 1.77953 | 30429 ft | 450 kts | 90° |
| 2026-05-06 13:58 | 51.55837 | 1.82920 | 30693 ft | 451 kts | 90° |
| 2026-05-06 13:59 | 51.55860 | 1.87978 | 30950 ft | 453 kts | 90° |
| 2026-05-06 13:59 | 51.55882 | 1.93048 | 31208 ft | 455 kts | 90° |
| 2026-05-06 13:59 | 51.55905 | 1.98160 | 31487 ft | 456 kts | 90° |
| 2026-05-06 13:59 | 51.55927 | 2.03230 | 31854 ft | 455 kts | 90° |
| 2026-05-06 14:00 | 51.55949 | 2.08309 | 32225 ft | 454 kts | 90° |
| 2026-05-06 14:00 | 51.55969 | 2.13401 | 32562 ft | 453 kts | 91° |
| 2026-05-06 14:00 | 51.55987 | 2.18458 | 32933 ft | 452 kts | 91° |
| 2026-05-06 14:00 | 51.55999 | 2.23499 | 33270 ft | 452 kts | 91° |
| 2026-05-06 14:01 | 51.56008 | 2.28577 | 33622 ft | 451 kts | 90° |
| 2026-05-06 14:01 | 51.56015 | 2.33603 | 33980 ft | 450 kts | 91° |
| 2026-05-06 14:01 | 51.56018 | 2.38633 | 34244 ft | 450 kts | 91° |
| 2026-05-06 14:01 | 51.56020 | 2.43674 | 34533 ft | 449 kts | 91° |
| 2026-05-06 14:02 | 51.56021 | 2.48699 | 34773 ft | 450 kts | 91° |
| 2026-05-06 14:02 | 51.56021 | 2.53655 | 35001 ft | 450 kts | 91° |
| 2026-05-06 14:02 | 51.56016 | 2.58691 | 35247 ft | 450 kts | 91° |
| 2026-05-06 14:02 | 51.56011 | 2.63719 | 35448 ft | 451 kts | 91° |
| 2026-05-06 14:03 | 51.56007 | 2.68778 | 35688 ft | 451 kts | 91° |
| 2026-05-06 14:03 | 51.55998 | 2.73821 | 35874 ft | 452 kts | 91° |
| 2026-05-06 14:03 | 51.55984 | 2.78870 | 36085 ft | 452 kts | 91° |
| 2026-05-06 14:03 | 51.55967 | 2.83943 | 36297 ft | 452 kts | 92° |
| 2026-05-06 14:04 | 51.55947 | 2.88992 | 36476 ft | 453 kts | 91° |
| 2026-05-06 14:04 | 51.55929 | 2.94060 | 36683 ft | 453 kts | 91° |
| 2026-05-06 14:04 | 51.55912 | 2.99132 | 36868 ft | 454 kts | 92° |
| 2026-05-06 14:04 | 51.55895 | 3.04201 | 36943 ft | 453 kts | 91° |
| 2026-05-06 14:05 | 51.55850 | 3.14244 | 36934 ft | 452 kts | 92° |
| 2026-05-06 14:05 | 51.55788 | 3.24330 | 36934 ft | 452 kts | 92° |
| 2026-05-06 14:06 | 51.55716 | 3.34423 | 36925 ft | 451 kts | 92° |
| 2026-05-06 14:06 | 51.55636 | 3.44510 | 36925 ft | 450 kts | 93° |
| 2026-05-06 14:07 | 51.55543 | 3.54578 | 36919 ft | 451 kts | 92° |
| 2026-05-06 14:07 | 51.55448 | 3.64644 | 36918 ft | 451 kts | 93° |
| 2026-05-06 14:08 | 51.55342 | 3.74717 | 36910 ft | 451 kts | 92° |
| 2026-05-06 14:08 | 51.55235 | 3.84795 | 36912 ft | 451 kts | 93° |
| 2026-05-06 14:09 | 51.55118 | 3.94886 | 36908 ft | 451 kts | 92° |
| 2026-05-06 14:09 | 51.54986 | 4.04961 | 36905 ft | 450 kts | 93° |
| 2026-05-06 14:10 | 51.54841 | 4.14966 | 36906 ft | 450 kts | 93° |
| 2026-05-06 14:10 | 51.54692 | 4.25030 | 36905 ft | 450 kts | 93° |
| 2026-05-06 14:11 | 51.54545 | 4.35092 | 36906 ft | 450 kts | 93° |
| 2026-05-06 14:11 | 51.54385 | 4.45146 | 36903 ft | 450 kts | 93° |
| 2026-05-06 14:12 | 51.54214 | 4.55186 | 36904 ft | 450 kts | 93° |
| 2026-05-06 14:12 | 51.54034 | 4.65164 | 36897 ft | 450 kts | 93° |
| 2026-05-06 14:13 | 51.53844 | 4.75206 | 36902 ft | 449 kts | 93° |
| 2026-05-06 14:13 | 51.53650 | 4.85245 | 36895 ft | 449 kts | 94° |
| 2026-05-06 14:14 | 51.53433 | 4.95299 | 36896 ft | 449 kts | 94° |
| 2026-05-06 14:14 | 51.53223 | 5.05332 | 36898 ft | 450 kts | 94° |
| 2026-05-06 14:15 | 51.53007 | 5.15302 | 36894 ft | 450 kts | 94° |
| 2026-05-06 14:15 | 51.52769 | 5.25342 | 36897 ft | 450 kts | 94° |
| 2026-05-06 14:16 | 51.52529 | 5.35395 | 36888 ft | 450 kts | 94° |
| 2026-05-06 14:16 | 51.52287 | 5.45389 | 36890 ft | 450 kts | 94° |
| 2026-05-06 14:17 | 51.52028 | 5.55423 | 36888 ft | 450 kts | 94° |
| 2026-05-06 14:17 | 51.51756 | 5.65454 | 36886 ft | 450 kts | 95° |
| 2026-05-06 14:18 | 51.51477 | 5.75492 | 36887 ft | 450 kts | 95° |
| 2026-05-06 14:18 | 51.51199 | 5.85539 | 36877 ft | 450 kts | 95° |
| 2026-05-06 14:19 | 51.50914 | 5.95510 | 36883 ft | 450 kts | 95° |
| 2026-05-06 14:19 | 51.50613 | 6.05541 | 36888 ft | 449 kts | 95° |
| 2026-05-06 14:20 | 51.50302 | 6.15571 | 36889 ft | 449 kts | 95° |
| 2026-05-06 14:20 | 51.49142 | 6.25336 | 36876 ft | 443 kts | 113° |
| 2026-05-06 14:21 | 51.46882 | 6.34503 | 36865 ft | 443 kts | 114° |
| 2026-05-06 14:21 | 51.44631 | 6.43700 | 36856 ft | 443 kts | 114° |
| 2026-05-06 14:22 | 51.43502 | 6.48299 | 36688 ft | 444 kts | 114° |
| 2026-05-06 14:22 | 51.42381 | 6.52850 | 36385 ft | 443 kts | 114° |
| 2026-05-06 14:22 | 51.41250 | 6.57425 | 35831 ft | 441 kts | 114° |
| 2026-05-06 14:22 | 51.40117 | 6.61998 | 35302 ft | 439 kts | 114° |
| 2026-05-06 14:23 | 51.38988 | 6.66536 | 34797 ft | 436 kts | 114° |
| 2026-05-06 14:23 | 51.37866 | 6.71031 | 34251 ft | 434 kts | 114° |
| 2026-05-06 14:23 | 51.36749 | 6.75517 | 33713 ft | 432 kts | 114° |
| 2026-05-06 14:23 | 51.35641 | 6.79958 | 33161 ft | 428 kts | 114° |
| 2026-05-06 14:24 | 51.34536 | 6.84360 | 32652 ft | 423 kts | 114° |
| 2026-05-06 14:24 | 51.33444 | 6.88706 | 32146 ft | 419 kts | 114° |
| 2026-05-06 14:24 | 51.32371 | 6.92965 | 31657 ft | 415 kts | 114° |
| 2026-05-06 14:24 | 51.31298 | 6.97221 | 31177 ft | 412 kts | 113° |
| 2026-05-06 14:25 | 51.30232 | 7.01449 | 30687 ft | 409 kts | 114° |
| 2026-05-06 14:25 | 51.29168 | 7.05664 | 30210 ft | 405 kts | 113° |
| 2026-05-06 14:25 | 51.28001 | 7.09743 | 29713 ft | 401 kts | 121° |
| 2026-05-06 14:25 | 51.26406 | 7.13338 | 29258 ft | 393 kts | 132° |
| 2026-05-06 14:26 | 51.24462 | 7.16332 | 28820 ft | 385 kts | 142° |
| 2026-05-06 14:26 | 51.22237 | 7.18668 | 28398 ft | 379 kts | 153° |
| 2026-05-06 14:26 | 51.19894 | 7.20533 | 27963 ft | 373 kts | 154° |
| 2026-05-06 14:26 | 51.17582 | 7.22351 | 27561 ft | 368 kts | 154° |
| 2026-05-06 14:27 | 51.15298 | 7.24150 | 27149 ft | 364 kts | 154° |
| 2026-05-06 14:27 | 51.13075 | 7.25907 | 26744 ft | 359 kts | 155° |
| 2026-05-06 14:27 | 51.10845 | 7.27672 | 26300 ft | 356 kts | 154° |
| 2026-05-06 14:27 | 51.08642 | 7.29463 | 25888 ft | 354 kts | 154° |
| 2026-05-06 14:28 | 51.06469 | 7.31264 | 25449 ft | 351 kts | 154° |
| 2026-05-06 14:28 | 51.04307 | 7.33066 | 25007 ft | 349 kts | 154° |
| 2026-05-06 14:28 | 51.02156 | 7.34854 | 24564 ft | 348 kts | 154° |
| 2026-05-06 14:28 | 51.00013 | 7.36631 | 24107 ft | 347 kts | 154° |
| 2026-05-06 14:29 | 50.97875 | 7.38394 | 23652 ft | 346 kts | 154° |
| 2026-05-06 14:29 | 50.95739 | 7.40147 | 23162 ft | 346 kts | 154° |
| 2026-05-06 14:29 | 50.94325 | 7.41307 | 22846 ft | 344 kts | 154° |
| 2026-05-06 14:29 | 50.91514 | 7.43614 | 22258 ft | 342 kts | 154° |
| 2026-05-06 14:30 | 50.89398 | 7.45346 | 21813 ft | 341 kts | 154° |
| 2026-05-06 14:30 | 50.88002 | 7.46487 | 21529 ft | 340 kts | 154° |
| 2026-05-06 14:30 | 50.85918 | 7.48191 | 21096 ft | 338 kts | 154° |
| 2026-05-06 14:30 | 50.83840 | 7.49890 | 20663 ft | 336 kts | 155° |
| 2026-05-06 14:31 | 50.81764 | 7.51588 | 20257 ft | 334 kts | 155° |
| 2026-05-06 14:31 | 50.79700 | 7.53272 | 19832 ft | 333 kts | 156° |
| 2026-05-06 14:31 | 50.77648 | 7.54946 | 19414 ft | 331 kts | 156° |
| 2026-05-06 14:31 | 50.75603 | 7.56611 | 18988 ft | 330 kts | 156° |
| 2026-05-06 14:32 | 50.73565 | 7.58271 | 18577 ft | 330 kts | 156° |
| 2026-05-06 14:32 | 50.71527 | 7.59932 | 18176 ft | 329 kts | 156° |
| 2026-05-06 14:32 | 50.69492 | 7.61583 | 17731 ft | 329 kts | 156° |
| 2026-05-06 14:32 | 50.67464 | 7.63225 | 17325 ft | 326 kts | 156° |
| 2026-05-06 14:33 | 50.65451 | 7.64852 | 16928 ft | 324 kts | 156° |
| 2026-05-06 14:33 | 50.63446 | 7.66466 | 16527 ft | 323 kts | 156° |
| 2026-05-06 14:33 | 50.61453 | 7.68074 | 16124 ft | 322 kts | 156° |
| 2026-05-06 14:33 | 50.59465 | 7.69682 | 15749 ft | 321 kts | 156° |
| 2026-05-06 14:34 | 50.57488 | 7.71280 | 15391 ft | 319 kts | 156° |
| 2026-05-06 14:34 | 50.55510 | 7.72877 | 15030 ft | 318 kts | 156° |
| 2026-05-06 14:34 | 50.53547 | 7.74462 | 14674 ft | 316 kts | 155° |
| 2026-05-06 14:34 | 50.51597 | 7.76035 | 14310 ft | 315 kts | 155° |
| 2026-05-06 14:35 | 50.49666 | 7.77589 | 13960 ft | 315 kts | 155° |
| 2026-05-06 14:35 | 50.47697 | 7.79168 | 13596 ft | 314 kts | 155° |
| 2026-05-06 14:35 | 50.45745 | 7.80728 | 13203 ft | 313 kts | 156° |
| 2026-05-06 14:35 | 50.43845 | 7.82276 | 12853 ft | 311 kts | 152° |
| 2026-05-06 14:36 | 50.42122 | 7.84310 | 12513 ft | 312 kts | 135° |
| 2026-05-06 14:36 | 50.40979 | 7.87192 | 12176 ft | 315 kts | 111° |
| 2026-05-06 14:36 | 50.40615 | 7.90586 | 11831 ft | 316 kts | 95° |
| 2026-05-06 14:36 | 50.40517 | 7.94117 | 11501 ft | 336 kts | 94° |
| 2026-05-06 14:37 | 50.40438 | 7.97816 | 11166 ft | 342 kts | 94° |
| 2026-05-06 14:37 | 50.40361 | 8.01541 | 10839 ft | 342 kts | 94° |
| 2026-05-06 14:37 | 50.40283 | 8.05262 | 10518 ft | 340 kts | 94° |
| 2026-05-06 14:37 | 50.40205 | 8.08964 | 10202 ft | 339 kts | 94° |
| 2026-05-06 14:38 | 50.40129 | 8.12652 | 9893 ft | 337 kts | 94° |
| 2026-05-06 14:38 | 50.40053 | 8.16337 | 9780 ft | 336 kts | 94° |
| 2026-05-06 14:38 | 50.39975 | 8.19997 | 9800 ft | 337 kts | 94° |
| 2026-05-06 14:38 | 50.39863 | 8.23660 | 9791 ft | 335 kts | 100° |
| 2026-05-06 14:39 | 50.39227 | 8.27159 | 9804 ft | 332 kts | 112° |
| 2026-05-06 14:39 | 50.38406 | 8.30533 | 9799 ft | 332 kts | 114° |
| 2026-05-06 14:39 | 50.37568 | 8.33912 | 9785 ft | 332 kts | 114° |
| 2026-05-06 14:39 | 50.36726 | 8.37271 | 9789 ft | 332 kts | 114° |
| 2026-05-06 14:40 | 50.35883 | 8.40649 | 9786 ft | 332 kts | 114° |
| 2026-05-06 14:40 | 50.35045 | 8.44003 | 9787 ft | 331 kts | 114° |
| 2026-05-06 14:40 | 50.34211 | 8.47323 | 9726 ft | 331 kts | 114° |
| 2026-05-06 14:40 | 50.33362 | 8.50711 | 9621 ft | 331 kts | 114° |
| 2026-05-06 14:41 | 50.32540 | 8.54021 | 9526 ft | 329 kts | 114° |
| 2026-05-06 14:41 | 50.31717 | 8.57331 | 9402 ft | 321 kts | 114° |
| 2026-05-06 14:41 | 50.30910 | 8.60572 | 9186 ft | 311 kts | 114° |
| 2026-05-06 14:41 | 50.30143 | 8.63658 | 8968 ft | 303 kts | 114° |
| 2026-05-06 14:42 | 50.29388 | 8.66706 | 8680 ft | 297 kts | 114° |
| 2026-05-06 14:42 | 50.28652 | 8.69688 | 8366 ft | 292 kts | 114° |
| 2026-05-06 14:42 | 50.27920 | 8.72641 | 7991 ft | 290 kts | 114° |
| 2026-05-06 14:42 | 50.27189 | 8.75576 | 7584 ft | 288 kts | 114° |
| 2026-05-06 14:43 | 50.26467 | 8.78493 | 7215 ft | 286 kts | 114° |
| 2026-05-06 14:43 | 50.25754 | 8.81386 | 6850 ft | 284 kts | 115° |
| 2026-05-06 14:43 | 50.24689 | 8.83904 | 6482 ft | 275 kts | 140° |
| 2026-05-06 14:43 | 50.23225 | 8.85797 | 6113 ft | 272 kts | 145° |
| 2026-05-06 14:44 | 50.21702 | 8.87453 | 5730 ft | 269 kts | 152° |
| 2026-05-06 14:44 | 50.20019 | 8.88662 | 5345 ft | 265 kts | 164° |
| 2026-05-06 14:44 | 50.18262 | 8.89425 | 5027 ft | 259 kts | 174° |
| 2026-05-06 14:45 | 50.14867 | 8.88668 | 4998 ft | 232 kts | 207° |
| 2026-05-06 14:45 | 50.13549 | 8.87387 | 5000 ft | 218 kts | 221° |
| 2026-05-06 14:45 | 50.12511 | 8.85703 | 4922 ft | 215 kts | 233° |
| 2026-05-06 14:45 | 50.11772 | 8.83686 | 4682 ft | 214 kts | 247° |
| 2026-05-06 14:46 | 50.11243 | 8.81466 | 4394 ft | 223 kts | 249° |
| 2026-05-06 14:46 | 50.10707 | 8.79180 | 4078 ft | 223 kts | 249° |
| 2026-05-06 14:46 | 50.10172 | 8.76912 | 3755 ft | 221 kts | 249° |
| 2026-05-06 14:46 | 50.09655 | 8.74726 | 3441 ft | 209 kts | 250° |
| 2026-05-06 14:47 | 50.09165 | 8.72653 | 3149 ft | 198 kts | 249° |
| 2026-05-06 14:47 | 50.08703 | 8.70705 | 2886 ft | 191 kts | 250° |
| 2026-05-06 14:47 | 50.08251 | 8.68798 | 2617 ft | 184 kts | 251° |
| 2026-05-06 14:47 | 50.07814 | 8.66956 | 2351 ft | 178 kts | 251° |
| 2026-05-06 14:48 | 50.07400 | 8.65209 | 2098 ft | 165 kts | 250° |
| 2026-05-06 14:48 | 50.07018 | 8.63602 | 1872 ft | 151 kts | 250° |
| 2026-05-06 14:48 | 50.06670 | 8.62139 | 1664 ft | 140 kts | 250° |
| 2026-05-06 14:48 | 50.06335 | 8.60732 | 1463 ft | 137 kts | 252° |
| 2026-05-06 14:49 | 50.06011 | 8.59371 | 1280 ft | 136 kts | 251° |
| 2026-05-06 14:49 | 50.05687 | 8.58009 | 1080 ft | 134 kts | 250° |
| 2026-05-06 14:49 | 50.05359 | 8.56632 | 877 ft | 137 kts | 249° |
| 2026-05-06 14:49 | 50.05031 | 8.55277 | 673 ft | 132 kts | 250° |
| 2026-05-06 14:50 | 50.04714 | 8.53913 | 481 ft | 133 kts | 250° |
| 2026-05-06 14:50 | 50.04395 | 8.52579 | 364 ft | 129 kts | 250° |
| 2026-05-06 14:50 | 50.04122 | 8.51445 | 329 ft | 88 kts | 250° |
| 2026-05-06 14:50 | 50.03968 | 8.50798 | 325 ft | 39 kts | 249° |
| 2026-05-06 14:51 | 50.03889 | 8.50510 | 322 ft | 27 kts | 238° |
| 2026-05-06 14:51 | 50.03778 | 8.50303 | 319 ft | 21 kts | 216° |
| 2026-05-06 14:51 | 50.03682 | 8.50193 | 321 ft | 13 kts | 210° |
| 2026-05-06 14:51 | 50.03627 | 8.50240 | 324 ft | 8 kts | 109° |
| 2026-05-06 14:52 | 50.03641 | 8.50343 | 324 ft | 12 kts | 71° |
| 2026-05-06 14:52 | 50.03664 | 8.50444 | 328 ft | 9 kts | 70° |
| 2026-05-06 14:52 | 50.03684 | 8.50526 | 325 ft | 8 kts | 69° |
| 2026-05-06 14:52 | 50.03717 | 8.50664 | 329 ft | 20 kts | 69° |
| 2026-05-06 14:53 | 50.03764 | 8.50861 | 334 ft | 19 kts | 70° |
| 2026-05-06 14:53 | 50.03817 | 8.51073 | 331 ft | 23 kts | 68° |
| 2026-05-06 14:53 | 50.03886 | 8.51334 | 334 ft | 29 kts | 70° |
| 2026-05-06 14:53 | 50.03959 | 8.51654 | 333 ft | 33 kts | 70° |
| 2026-05-06 14:54 | 50.04039 | 8.51995 | 335 ft | 34 kts | 70° |
| 2026-05-06 14:54 | 50.04118 | 8.52337 | 348 ft | 34 kts | 70° |
| 2026-05-06 14:54 | 50.04199 | 8.52677 | 355 ft | 33 kts | 70° |
| 2026-05-06 14:54 | 50.04279 | 8.53011 | 356 ft | 33 kts | 70° |
| 2026-05-06 14:55 | 50.04357 | 8.53336 | 374 ft | 30 kts | 69° |
| 2026-05-06 14:55 | 50.04398 | 8.53622 | 375 ft | 26 kts | 77° |
| 2026-05-06 14:55 | 50.04418 | 8.53900 | 375 ft | 27 kts | 83° |
| 2026-05-06 14:55 | 50.04439 | 8.54196 | 375 ft | 28 kts | 84° |
| 2026-05-06 14:56 | 50.04446 | 8.54507 | 368 ft | 31 kts | 104° |
| 2026-05-06 14:56 | 50.04331 | 8.54762 | 358 ft | 28 kts | 160° |
| 2026-05-06 14:56 | 50.04164 | 8.54854 | 356 ft | 26 kts | 160° |
| 2026-05-06 14:56 | 50.04034 | 8.54928 | 358 ft | 16 kts | 160° |
| 2026-05-06 14:57 | 50.03934 | 8.54988 | 353 ft | 18 kts | 158° |
| 2026-05-06 14:57 | 50.03839 | 8.55085 | 348 ft | 4 kts | 122° |
| 2026-05-06 14:57 | 50.03837 | 8.55132 | 357 ft | 9 kts | 79° |
| 2026-05-06 14:57 | 50.03895 | 8.55315 | 358 ft | 27 kts | 66° |
| 2026-05-06 14:58 | 50.03965 | 8.55590 | 352 ft | 28 kts | 71° |
| 2026-05-06 14:58 | 50.04029 | 8.55880 | 356 ft | 28 kts | 70° |
| 2026-05-06 14:58 | 50.04110 | 8.56202 | 357 ft | 35 kts | 69° |
| 2026-05-06 14:58 | 50.04197 | 8.56562 | 363 ft | 36 kts | 69° |
| 2026-05-06 14:59 | 50.04285 | 8.56922 | 363 ft | 36 kts | 69° |
| 2026-05-06 14:59 | 50.04376 | 8.57290 | 365 ft | 37 kts | 69° |
| 2026-05-06 14:59 | 50.04465 | 8.57661 | 368 ft | 36 kts | 70° |
| 2026-05-06 14:59 | 50.04522 | 8.57920 | 364 ft | 13 kts | 73° |
| 2026-05-06 15:00 | 50.04527 | 8.57946 | 364 ft | 2 kts | 73° |
| 2026-05-06 15:00 | 50.04533 | 8.57971 | 367 ft | 5 kts | 70° |
| 2026-05-06 15:00 | 50.04589 | 8.58023 | 360 ft | 14 kts | 360° |
| 2026-05-06 15:00 | 50.04650 | 8.57994 | 363 ft | 0 kts | 337° |
| 2026-05-06 15:01 | 50.04653 | 8.57991 | 362 ft | 1 kts | 337° |
| 2026-05-06 15:01 | 50.04658 | 8.57988 | 358 ft | 0 kts | 337° |
| 2026-05-06 15:02 | 50.04685 | 8.57971 | 361 ft | 12 kts | 337° |
| 2026-05-06 15:02 | 50.04781 | 8.57908 | 362 ft | 17 kts | 337° |
| 2026-05-06 15:03 | 50.04848 | 8.57854 | 361 ft | 8 kts | 309° |
| 2026-05-06 15:03 | 50.04872 | 8.57756 | 358 ft | 11 kts | 289° |
| 2026-05-06 15:03 | 50.04906 | 8.57627 | 360 ft | 15 kts | 293° |
| 2026-05-06 15:03 | 50.04943 | 8.57499 | 356 ft | 8 kts | 294° |
| 2026-05-06 15:04 | 50.04956 | 8.57480 | 363 ft | 4 kts | 342° |
| 2026-05-06 15:04 | 50.04991 | 8.57506 | 358 ft | 6 kts | 28° |
| 2026-05-06 15:04 | 50.05016 | 8.57523 | 358 ft | 0 kts | 22° |